createdAt,value
2022-08-08T00:01:21.143Z,4.53
2022-08-08T00:04:32.925Z,2.90
2022-08-08T00:07:16.277Z,2.80
2022-08-08T00:10:14.827Z,2.80
2022-08-08T00:12:56.801Z,3.03
2022-08-08T00:15:56.675Z,3.13
2022-08-08T00:18:33.872Z,2.60
2022-08-08T00:21:06.190Z,3.00
2022-08-08T00:24:00.566Z,3.03
2022-08-08T00:26:38.796Z,3.70
2022-08-08T00:29:45.084Z,3.47
2022-08-08T00:32:20.809Z,3.00
2022-08-08T00:35:20.281Z,3.00
2022-08-08T00:38:06.334Z,3.67
2022-08-08T00:41:10.838Z,3.70
2022-08-08T00:44:02.722Z,3.53
2022-08-08T00:46:58.812Z,3.93
2022-08-08T00:49:50.515Z,3.57
2022-08-08T00:53:15.553Z,3.07
2022-08-08T00:56:16.265Z,3.20
2022-08-08T00:59:02.531Z,3.70
2022-08-08T01:02:01.529Z,3.50
2022-08-08T01:04:41.994Z,5.20
2022-08-08T01:07:34.440Z,3.37
2022-08-08T01:10:06.301Z,3.60
2022-08-08T01:12:57.754Z,3.20
2022-08-08T01:15:47.259Z,3.67
2022-08-08T01:18:53.655Z,3.70
2022-08-08T01:22:10.101Z,3.80
2022-08-08T01:24:34.909Z,3.40
2022-08-08T01:27:32.711Z,3.33
2022-08-08T01:30:25.371Z,3.37
2022-08-08T01:33:23.819Z,3.70
2022-08-08T01:36:18.973Z,3.67
2022-08-08T01:39:27.897Z,3.37
2022-08-08T01:42:08.658Z,3.77
2022-08-08T01:44:59.095Z,3.50
2022-08-08T01:48:15.587Z,3.37
2022-08-08T01:50:42.890Z,3.67
2022-08-08T01:55:25.939Z,5.40
2022-08-08T01:56:50.133Z,3.53
2022-08-08T01:59:49.271Z,3.67
2022-08-08T02:02:34.713Z,4.17
2022-08-08T02:05:23.287Z,3.70
2022-08-08T02:08:16.788Z,3.47
2022-08-08T02:11:07.916Z,3.90
2022-08-08T02:14:17.755Z,3.83
2022-08-08T02:17:03.942Z,4.17
2022-08-08T02:20:07.777Z,3.73
2022-08-08T02:23:05.317Z,4.50
2022-08-08T02:25:48.497Z,4.60
2022-08-08T02:28:42.134Z,4.10
2022-08-08T02:31:59.259Z,4.37
2022-08-08T02:35:07.496Z,4.40
2022-08-08T02:38:02.889Z,4.13
2022-08-08T02:40:57.145Z,4.33
2022-08-08T02:44:39.288Z,4.70
2022-08-08T02:47:03.496Z,4.30
2022-08-08T02:49:51.382Z,4.63
2022-08-08T02:52:40.141Z,5.73
2022-08-08T02:55:22.106Z,5.17
2022-08-08T02:58:10.889Z,4.93
2022-08-08T03:00:53.948Z,4.60
2022-08-08T03:05:00.418Z,4.70
2022-08-08T03:06:35.591Z,4.73
2022-08-08T03:09:21.455Z,5.20
2022-08-08T03:12:13.888Z,4.97
2022-08-08T03:16:01.861Z,6.13
2022-08-08T03:18:06.881Z,4.63
2022-08-08T03:20:51.783Z,4.57
2022-08-08T03:23:19.983Z,4.60
2022-08-08T03:25:50.359Z,5.17
2022-08-08T03:28:36.264Z,4.70
2022-08-08T03:31:25.666Z,5.10
2022-08-08T03:33:58.859Z,5.20
2022-08-08T03:36:30.271Z,5.93
2022-08-08T03:39:14.921Z,5.20
2022-08-08T03:42:29.103Z,5.40
2022-08-08T03:44:34.749Z,5.17
2022-08-08T03:47:13.903Z,4.93
2022-08-08T03:50:00.646Z,4.73
2022-08-08T03:52:31.671Z,5.23
2022-08-08T03:55:10.138Z,5.60
2022-08-08T03:58:33.347Z,5.87
2022-08-08T04:00:27.619Z,5.30
2022-08-08T04:03:04.490Z,5.10
2022-08-08T04:05:39.988Z,5.67
2022-08-08T04:08:33.579Z,4.87
2022-08-08T04:11:11.183Z,5.13
2022-08-08T04:14:03.030Z,5.63
2022-08-08T04:16:38.922Z,5.93
2022-08-08T04:19:23.923Z,5.13
2022-08-08T04:21:54.199Z,5.03
2022-08-08T04:24:29.038Z,5.07
2022-08-08T04:26:59.150Z,5.60
2022-08-08T04:29:27.399Z,5.43
2022-08-08T04:32:00.673Z,5.87
2022-08-08T04:34:31.917Z,5.63
2022-08-08T04:37:00.989Z,5.30
2022-08-08T04:40:03.378Z,5.17
2022-08-08T04:42:17.874Z,5.37
2022-08-08T04:44:47.729Z,6.07
2022-08-08T04:47:15.255Z,5.50
2022-08-08T04:49:59.154Z,5.47
2022-08-08T04:52:34.359Z,5.73
2022-08-08T04:55:04.478Z,5.57
2022-08-08T04:57:34.307Z,5.23
2022-08-08T05:00:02.250Z,5.47
2022-08-08T05:02:31.136Z,6.20
2022-08-08T05:05:00.007Z,6.20
2022-08-08T05:07:33.084Z,7.20
2022-08-08T05:10:12.676Z,5.37
2022-08-08T05:12:53.650Z,5.80
2022-08-08T05:15:31.547Z,5.27
2022-08-08T05:18:15.363Z,5.93
2022-08-08T05:20:50.138Z,5.47
2022-08-08T05:23:17.962Z,5.40
2022-08-08T05:25:46.695Z,6.00
2022-08-08T05:28:14.820Z,4.87
2022-08-08T05:30:47.414Z,4.90
2022-08-08T05:33:17.049Z,5.60
2022-08-08T05:35:46.491Z,5.37
2022-08-08T05:38:32.049Z,5.07
2022-08-08T05:41:01.493Z,5.13
2022-08-08T05:44:02.215Z,5.27
2022-08-08T05:46:20.790Z,5.83
2022-08-08T05:48:52.328Z,5.40
2022-08-08T05:51:22.150Z,4.87
2022-08-08T05:54:25.036Z,4.97
2022-08-08T05:56:42.190Z,5.43
2022-08-08T06:00:01.055Z,4.73
2022-08-08T06:02:33.761Z,5.47
2022-08-08T06:05:24.288Z,5.37
2022-08-08T06:07:52.273Z,5.10
2022-08-08T06:10:34.912Z,5.00
2022-08-08T06:13:06.294Z,5.27
2022-08-08T06:15:50.602Z,4.93
2022-08-08T06:18:22.395Z,3.90
2022-08-08T06:20:57.077Z,4.60
2022-08-08T06:23:48.759Z,4.90
2022-08-08T06:26:38.982Z,4.20
2022-08-08T06:29:26.853Z,3.80
2022-08-08T06:32:11.350Z,4.57
2022-08-08T06:34:56.605Z,4.23
2022-08-08T06:37:39.647Z,4.20
2022-08-08T06:40:16.239Z,3.93
2022-08-08T06:42:52.259Z,3.80
2022-08-08T06:45:22.259Z,3.70
2022-08-08T06:47:52.270Z,3.73
2022-08-08T06:50:31.829Z,3.87
2022-08-08T06:53:14.363Z,3.70
2022-08-08T06:55:47.133Z,3.60
2022-08-08T06:58:14.426Z,3.93
2022-08-08T07:00:45.367Z,3.87
2022-08-08T07:04:37.445Z,4.20
2022-08-08T07:06:23.646Z,3.53
2022-08-08T07:08:58.781Z,3.50
2022-08-08T07:11:50.841Z,3.00
2022-08-08T07:14:28.134Z,3.63
2022-08-08T07:17:09.468Z,3.30
2022-08-08T07:20:13.567Z,3.40
2022-08-08T07:23:02.255Z,3.77
2022-08-08T07:25:39.421Z,5.83
2022-08-08T07:28:18.714Z,3.60
2022-08-08T07:30:49.941Z,3.57
2022-08-08T07:33:18.887Z,2.90
2022-08-08T07:35:48.511Z,2.83
2022-08-08T07:38:20.902Z,3.20
2022-08-08T07:40:59.073Z,3.27
2022-08-08T07:43:36.919Z,2.20
2022-08-08T07:46:18.442Z,2.07
2022-08-08T07:48:51.720Z,2.47
2022-08-08T07:51:23.692Z,2.60
2022-08-08T07:54:29.315Z,2.73
2022-08-08T07:57:17.035Z,3.37
2022-08-08T08:00:16.258Z,3.20
2022-08-08T08:03:02.752Z,2.60
2022-08-08T08:05:36.621Z,5.10
2022-08-08T08:08:28.130Z,3.00
2022-08-08T08:10:58.149Z,2.87
2022-08-08T08:13:42.638Z,2.97
2022-08-08T08:16:35.355Z,2.87
2022-08-08T08:19:07.095Z,3.10
2022-08-08T08:21:52.284Z,2.45
2022-08-08T08:24:32.036Z,2.83
2022-08-08T08:27:02.692Z,2.83
2022-08-08T08:29:35.684Z,2.92
2022-08-08T08:32:05.652Z,2.80
2022-08-08T08:34:33.707Z,2.65
2022-08-08T08:37:08.121Z,2.90
2022-08-08T08:40:00.520Z,2.60
2022-08-08T08:42:31.270Z,2.17
2022-08-08T08:45:21.991Z,2.58
2022-08-08T08:47:55.028Z,2.10
2022-08-08T08:50:32.595Z,2.40
2022-08-08T08:53:27.787Z,2.10
2022-08-08T08:56:02.213Z,2.20
2022-08-08T08:58:33.299Z,2.22
2022-08-08T09:01:08.795Z,1.90
2022-08-08T09:03:46.566Z,2.03
2022-08-08T09:06:26.909Z,2.05
2022-08-08T09:09:26.136Z,2.17
2022-08-08T09:12:08.139Z,2.15
2022-08-08T09:14:42.575Z,1.88
2022-08-08T09:17:15.713Z,2.75
2022-08-08T09:21:58.546Z,1.98
2022-08-08T09:22:34.573Z,2.67
2022-08-08T09:25:02.105Z,2.20
2022-08-08T09:27:50.806Z,2.00
2022-08-08T09:30:20.020Z,2.08
2022-08-08T09:33:11.984Z,1.70
2022-08-08T09:35:49.379Z,1.60
2022-08-08T09:38:53.389Z,1.73
2022-08-08T09:42:14.486Z,2.15
2022-08-08T09:44:34.372Z,2.03
2022-08-08T09:48:04.669Z,1.70
2022-08-08T09:49:58.923Z,2.30
2022-08-08T09:52:56.623Z,2.13
2022-08-08T09:55:31.154Z,2.60
2022-08-08T09:58:27.749Z,3.83
2022-08-08T10:01:15.412Z,1.50
2022-08-08T10:04:01.983Z,2.17
2022-08-08T10:06:35.632Z,2.45
2022-08-08T10:09:05.265Z,2.00
2022-08-08T10:12:28.358Z,2.00
2022-08-08T10:14:39.574Z,1.60
2022-08-08T10:17:56.900Z,1.40
2022-08-08T10:20:00.649Z,1.70
2022-08-08T10:22:30.111Z,2.47
2022-08-08T10:25:05.344Z,1.42
2022-08-08T10:27:42.099Z,2.30
2022-08-08T10:30:16.679Z,1.95
2022-08-08T10:33:00.060Z,2.08
2022-08-08T10:36:09.783Z,1.77
2022-08-08T10:38:19.868Z,2.13
2022-08-08T10:40:52.033Z,2.20
2022-08-08T10:43:20.989Z,1.55
2022-08-08T10:45:57.202Z,1.40
2022-08-08T10:48:57.342Z,2.65
2022-08-08T10:51:31.112Z,1.98
2022-08-08T10:54:00.109Z,2.10
2022-08-08T10:56:35.562Z,1.95
2022-08-08T10:59:08.328Z,1.90
2022-08-08T11:01:39.439Z,1.95
2022-08-08T11:04:10.326Z,1.60
2022-08-08T11:06:41.697Z,1.80
2022-08-08T11:09:19.898Z,1.77
2022-08-08T11:12:05.994Z,1.98
2022-08-08T11:15:05.755Z,2.13
2022-08-08T11:17:59.849Z,1.80
2022-08-08T11:20:27.414Z,1.60
2022-08-08T11:23:01.161Z,1.95
2022-08-08T11:25:53.000Z,2.80
2022-08-08T11:28:29.074Z,2.10
2022-08-08T11:31:00.915Z,1.90
2022-08-08T11:33:52.686Z,2.15
2022-08-08T11:36:21.658Z,1.88
2022-08-08T11:38:55.258Z,2.10
2022-08-08T11:41:33.465Z,4.45
2022-08-08T11:44:01.451Z,2.15
2022-08-08T11:46:31.455Z,2.30
2022-08-08T11:49:07.468Z,1.65
2022-08-08T11:51:40.445Z,2.33
2022-08-08T11:54:32.385Z,1.48
2022-08-08T11:57:27.191Z,1.55
2022-08-08T12:00:02.577Z,2.15
2022-08-08T12:02:33.997Z,1.70
2022-08-08T12:05:07.489Z,1.50
2022-08-08T12:07:52.039Z,1.70
2022-08-08T12:10:23.940Z,1.77
2022-08-08T12:13:05.464Z,1.67
2022-08-08T12:15:41.783Z,1.70
2022-08-08T12:18:27.620Z,1.80
2022-08-08T12:20:59.596Z,2.75
2022-08-08T12:23:43.289Z,1.20
2022-08-08T12:26:27.956Z,1.30
2022-08-08T12:29:25.930Z,1.60
2022-08-08T12:32:17.217Z,1.13
2022-08-08T12:35:01.203Z,1.55
2022-08-08T12:37:40.934Z,1.52
2022-08-08T12:40:22.451Z,1.40
2022-08-08T12:42:52.098Z,1.30
2022-08-08T12:45:54.706Z,1.38
2022-08-08T12:48:35.543Z,2.50
2022-08-08T12:51:03.170Z,1.30
2022-08-08T12:53:36.540Z,1.50
2022-08-08T12:56:19.449Z,1.98
2022-08-08T12:58:54.513Z,1.70
2022-08-08T13:01:37.497Z,1.60
2022-08-08T13:04:18.645Z,2.38
2022-08-08T13:06:56.802Z,1.40
2022-08-08T13:09:43.165Z,1.27
2022-08-08T13:12:32.762Z,2.83
2022-08-08T13:15:03.386Z,1.90
2022-08-08T13:17:54.841Z,1.33
2022-08-08T13:20:20.334Z,1.13
2022-08-08T13:22:47.856Z,1.60
2022-08-08T13:25:21.251Z,1.77
2022-08-08T13:27:56.756Z,1.70
2022-08-08T13:30:28.626Z,1.48
2022-08-08T13:33:01.390Z,1.90
2022-08-08T13:35:39.031Z,1.55
2022-08-08T13:38:13.104Z,1.70
2022-08-08T13:40:44.616Z,1.83
2022-08-08T13:43:13.326Z,1.83
2022-08-08T13:45:40.854Z,2.20
2022-08-08T13:48:15.686Z,1.70
2022-08-08T13:50:52.064Z,1.73
2022-08-08T13:53:36.532Z,1.33
2022-08-08T13:56:11.544Z,1.95
2022-08-08T13:58:57.199Z,1.65
2022-08-08T14:01:53.076Z,1.40
2022-08-08T14:04:24.959Z,1.33
2022-08-08T14:07:03.346Z,1.77
2022-08-08T14:10:05.688Z,1.30
2022-08-08T14:12:28.005Z,1.95
2022-08-08T14:14:55.626Z,2.13
2022-08-08T14:17:58.346Z,1.38
2022-08-08T14:20:15.826Z,1.40
2022-08-08T14:23:10.271Z,2.28
2022-08-08T14:25:57.398Z,1.45
2022-08-08T14:28:29.440Z,1.48
2022-08-08T14:31:09.372Z,1.67
2022-08-08T14:33:37.017Z,1.40
2022-08-08T14:36:11.495Z,1.55
2022-08-08T14:38:53.007Z,1.50
2022-08-08T14:41:53.198Z,1.25
2022-08-08T14:44:22.147Z,2.03
2022-08-08T14:47:00.955Z,1.55
2022-08-08T14:49:37.944Z,2.50
2022-08-08T14:52:21.547Z,1.85
2022-08-08T14:54:49.476Z,1.70
2022-08-08T14:57:17.217Z,1.60
2022-08-08T14:59:51.470Z,2.00
2022-08-08T15:02:31.199Z,2.50
2022-08-08T15:05:10.691Z,1.52
2022-08-08T15:07:40.573Z,1.90
2022-08-08T15:10:12.710Z,1.48
2022-08-08T15:12:41.481Z,1.30
2022-08-08T15:15:09.924Z,1.40
2022-08-08T15:17:43.051Z,2.65
2022-08-08T15:20:14.191Z,1.98
2022-08-08T15:22:42.674Z,1.98
2022-08-08T15:25:17.260Z,1.50
2022-08-08T15:28:04.815Z,1.60
2022-08-08T15:30:43.109Z,1.70
2022-08-08T15:33:20.758Z,1.30
2022-08-08T15:35:59.959Z,1.92
2022-08-08T15:38:27.472Z,1.40
2022-08-08T15:40:54.347Z,1.98
2022-08-08T15:43:35.218Z,1.90
2022-08-08T15:46:04.234Z,2.15
2022-08-08T15:48:31.221Z,1.50
2022-08-08T15:51:03.186Z,1.88
2022-08-08T15:53:49.014Z,2.10
2022-08-08T15:56:16.840Z,1.80
2022-08-08T15:58:48.520Z,1.73
2022-08-08T16:01:16.520Z,1.80
2022-08-08T16:03:46.052Z,1.80
2022-08-08T16:06:28.676Z,1.85
2022-08-08T16:13:03.085Z,1.67
2022-08-08T16:13:09.459Z,1.52
2022-08-08T16:14:33.794Z,1.90
2022-08-08T16:17:01.920Z,2.15
2022-08-08T16:19:30.298Z,1.98
2022-08-08T16:22:30.030Z,1.60
2022-08-08T16:24:58.329Z,2.75
2022-08-08T16:27:25.476Z,2.10
2022-08-08T16:30:13.891Z,1.70
2022-08-08T16:32:41.446Z,1.40
2022-08-08T16:35:10.071Z,2.00
2022-08-08T16:37:40.472Z,1.67
2022-08-08T16:40:13.962Z,1.70
2022-08-08T16:42:46.654Z,1.90
2022-08-08T16:46:37.397Z,2.03
2022-08-08T16:48:07.963Z,2.10
2022-08-08T16:50:35.045Z,2.08
2022-08-08T16:55:00.749Z,1.48
2022-08-08T16:55:55.651Z,1.83
2022-08-08T16:58:31.635Z,1.35
2022-08-08T17:01:04.133Z,1.92
2022-08-08T17:04:01.036Z,2.10
2022-08-08T17:06:36.764Z,1.75
2022-08-08T17:09:06.616Z,1.40
2022-08-08T17:11:48.236Z,1.30
2022-08-08T17:14:19.023Z,1.35
2022-08-08T17:16:51.873Z,1.27
2022-08-08T17:19:24.898Z,1.38
2022-08-08T17:21:51.925Z,1.52
2022-08-08T17:24:26.894Z,0.80
2022-08-08T17:26:54.753Z,2.08
2022-08-08T17:29:25.485Z,1.63
2022-08-08T17:31:52.932Z,1.70
2022-08-08T17:34:53.563Z,1.35
2022-08-08T17:37:12.741Z,1.15
2022-08-08T17:40:03.572Z,1.48
2022-08-08T17:42:27.768Z,1.40
2022-08-08T17:44:55.185Z,1.65
2022-08-08T17:47:40.058Z,1.63
2022-08-08T17:50:09.640Z,1.40
2022-08-08T17:52:38.426Z,1.50
2022-08-08T17:56:04.663Z,1.83
2022-08-08T17:57:57.992Z,1.40
2022-08-08T18:00:30.762Z,1.63
2022-08-08T18:03:07.889Z,1.20
2022-08-08T18:05:44.140Z,1.48
2022-08-08T18:08:38.408Z,1.45
2022-08-08T18:11:16.623Z,2.13
2022-08-08T18:13:46.314Z,1.65
2022-08-08T18:16:20.831Z,2.33
2022-08-08T18:18:55.952Z,5.18
2022-08-08T18:22:00.142Z,1.75
2022-08-08T18:24:21.034Z,1.70
2022-08-08T18:26:53.942Z,1.38
2022-08-08T18:29:30.210Z,1.63
2022-08-08T18:32:07.218Z,1.40
2022-08-08T18:34:35.657Z,1.40
2022-08-08T18:37:08.205Z,1.50
2022-08-08T18:39:38.355Z,1.75
2022-08-08T18:42:13.911Z,1.83
2022-08-08T18:44:53.000Z,1.90
2022-08-08T18:47:23.965Z,1.53
2022-08-08T18:50:00.199Z,2.17
2022-08-08T18:52:30.607Z,1.90
2022-08-08T18:55:00.613Z,1.50
2022-08-08T18:57:41.972Z,2.13
2022-08-08T19:00:15.991Z,2.00
2022-08-08T19:02:56.555Z,2.37
2022-08-08T19:05:37.323Z,2.47
2022-08-08T19:08:24.640Z,2.20
2022-08-08T19:10:59.881Z,2.53
2022-08-08T19:13:53.588Z,2.57
2022-08-08T19:16:18.390Z,2.57
2022-08-08T19:18:53.337Z,2.33
2022-08-08T19:21:30.732Z,2.40
2022-08-08T19:24:00.445Z,2.77
2022-08-08T19:26:30.531Z,2.33
2022-08-08T19:29:01.650Z,2.60
2022-08-08T19:31:31.665Z,2.83
2022-08-08T19:34:35.962Z,2.80
2022-08-08T19:36:53.347Z,1.90
2022-08-08T19:39:22.914Z,8.90
2022-08-08T19:41:50.513Z,2.30
2022-08-08T19:44:42.667Z,2.27
2022-08-08T19:47:06.690Z,2.33
2022-08-08T19:49:36.697Z,2.87
2022-08-08T19:52:06.082Z,2.40
2022-08-08T19:54:33.035Z,2.63
2022-08-08T19:57:04.283Z,2.40
2022-08-08T19:59:35.209Z,2.87
2022-08-08T20:02:04.581Z,3.20
2022-08-08T20:04:33.375Z,2.00
2022-08-08T20:07:03.522Z,2.70
2022-08-08T20:09:45.069Z,2.00
2022-08-08T20:12:34.420Z,2.70
2022-08-08T20:15:14.378Z,2.43
2022-08-08T20:17:45.520Z,2.53
2022-08-08T20:20:18.807Z,2.37
2022-08-08T20:22:48.791Z,2.20
2022-08-08T20:25:20.263Z,2.63
2022-08-08T20:27:49.433Z,2.10
2022-08-08T20:30:53.333Z,2.53
2022-08-08T20:33:20.080Z,2.30
2022-08-08T20:35:58.029Z,2.27
2022-08-08T20:38:31.893Z,2.93
2022-08-08T20:41:16.895Z,2.40
2022-08-08T20:43:48.292Z,2.47
2022-08-08T20:46:25.721Z,2.70
2022-08-08T20:48:58.497Z,2.70
2022-08-08T20:51:32.345Z,2.73
2022-08-08T20:54:09.292Z,2.17
2022-08-08T20:57:17.565Z,2.10
2022-08-08T20:59:30.217Z,3.00
2022-08-08T21:02:06.367Z,2.47
2022-08-08T21:04:36.768Z,2.13
2022-08-08T21:07:13.161Z,2.50
2022-08-08T21:09:48.771Z,2.60
2022-08-08T21:12:34.737Z,2.53
2022-08-08T21:15:06.524Z,2.63
2022-08-08T21:17:41.535Z,3.07
2022-08-08T21:20:12.193Z,2.50
2022-08-08T21:22:39.199Z,2.47
2022-08-08T21:25:10.701Z,2.60
2022-08-08T21:28:05.807Z,2.40
2022-08-08T21:30:28.245Z,2.50
2022-08-08T21:32:57.240Z,3.00
2022-08-08T21:36:14.025Z,2.80
2022-08-08T21:38:16.097Z,2.67
2022-08-08T21:40:54.893Z,2.47
2022-08-08T21:43:33.123Z,3.70
2022-08-08T21:48:08.837Z,2.90
2022-08-08T21:48:54.031Z,2.70
2022-08-08T21:54:16.797Z,2.50
2022-08-08T21:54:32.113Z,2.43
2022-08-08T21:56:59.531Z,2.70
2022-08-08T21:59:44.155Z,2.40
2022-08-08T22:02:15.795Z,2.53
2022-08-08T22:04:43.262Z,3.63
2022-08-08T22:07:10.655Z,2.83
2022-08-08T22:09:41.005Z,2.53
2022-08-08T22:12:14.962Z,3.00
2022-08-08T22:14:47.313Z,2.80
2022-08-08T22:17:18.399Z,2.40
2022-08-08T22:20:12.822Z,2.67
2022-08-08T22:22:36.091Z,2.77
2022-08-08T22:25:17.777Z,2.40
2022-08-08T22:28:04.249Z,3.40
2022-08-08T22:30:38.927Z,2.90
2022-08-08T22:33:09.011Z,2.90
2022-08-08T22:36:04.328Z,2.63
2022-08-08T22:38:37.899Z,3.23
2022-08-08T22:41:15.966Z,2.63
2022-08-08T22:44:02.022Z,2.50
2022-08-08T22:46:33.158Z,2.57
2022-08-08T22:49:00.569Z,2.77
2022-08-08T22:51:29.124Z,3.10
2022-08-08T22:54:32.700Z,2.63
2022-08-08T22:56:47.495Z,2.40
2022-08-08T22:59:18.515Z,3.10
2022-08-08T23:02:03.267Z,2.40
2022-08-08T23:04:33.632Z,2.50
2022-08-08T23:07:02.645Z,3.10
2022-08-08T23:09:30.985Z,3.60
2022-08-08T23:12:28.101Z,3.23
2022-08-08T23:14:53.490Z,2.27
2022-08-08T23:17:24.117Z,2.57
2022-08-08T23:19:57.073Z,2.57
2022-08-08T23:22:23.979Z,2.57
2022-08-08T23:24:51.044Z,2.87
2022-08-08T23:27:39.466Z,2.50
2022-08-08T23:30:09.444Z,2.10
2022-08-08T23:32:41.787Z,2.40
2022-08-08T23:35:16.971Z,2.40
2022-08-08T23:38:03.285Z,2.47
2022-08-08T23:40:31.099Z,2.53
2022-08-08T23:42:58.282Z,2.33
2022-08-08T23:49:04.329Z,2.33
2022-08-08T23:49:05.980Z,2.33
2022-08-08T23:51:12.627Z,2.73
2022-08-08T23:54:06.320Z,2.63
2022-08-08T23:56:32.465Z,2.00
2022-08-08T23:59:02.519Z,2.30
